createdAt,value
2018-08-17T00:00:53.249Z,21.30
2018-08-17T00:03:21.611Z,21.20
2018-08-17T00:05:50.021Z,21.20
2018-08-17T00:08:18.380Z,21.30
2018-08-17T00:10:46.689Z,21.30
2018-08-17T00:13:15.019Z,21.30
2018-08-17T00:15:43.375Z,21.20
2018-08-17T00:18:11.774Z,21.20
2018-08-17T00:20:40.115Z,21.20
2018-08-17T00:23:08.429Z,21.20
2018-08-17T00:25:36.761Z,21.10
2018-08-17T00:28:05.323Z,21.20
2018-08-17T00:30:33.784Z,21.10
2018-08-17T00:33:02.209Z,21.10
2018-08-17T00:35:30.595Z,21.00
2018-08-17T00:37:59.054Z,21.00
2018-08-17T00:40:27.393Z,21.00
2018-08-17T00:42:55.741Z,20.90
2018-08-17T00:45:24.142Z,20.90
2018-08-17T00:47:52.581Z,20.90
2018-08-17T00:50:21.041Z,20.90
2018-08-17T00:52:49.407Z,20.80
2018-08-17T00:55:17.797Z,20.80
2018-08-17T00:57:46.113Z,20.80
2018-08-17T01:00:21.286Z,20.80
2018-08-17T01:02:49.681Z,20.80
2018-08-17T01:05:18.191Z,20.80
2018-08-17T01:07:46.633Z,20.80
2018-08-17T01:10:15.032Z,20.80
2018-08-17T01:12:43.432Z,20.90
2018-08-17T01:15:11.784Z,20.80
2018-08-17T01:17:40.369Z,20.80
2018-08-17T01:20:10.617Z,20.80
2018-08-17T01:22:39.158Z,20.80
2018-08-17T01:25:07.607Z,20.80
2018-08-17T01:27:35.933Z,20.80
2018-08-17T01:30:05.156Z,20.90
2018-08-17T01:32:33.633Z,20.90
2018-08-17T01:35:01.973Z,20.90
2018-08-17T01:37:30.278Z,20.90
2018-08-17T01:39:58.609Z,20.90
2018-08-17T01:42:26.965Z,20.80
2018-08-17T01:44:55.375Z,20.80
2018-08-17T01:47:23.764Z,20.80
2018-08-17T01:49:52.078Z,20.80
2018-08-17T01:52:20.415Z,20.80
2018-08-17T01:54:48.796Z,20.80
2018-08-17T01:57:17.124Z,20.90
2018-08-17T01:59:45.521Z,21.00
2018-08-17T02:02:13.848Z,21.00
2018-08-17T02:04:42.265Z,20.90
2018-08-17T02:07:10.783Z,20.90
2018-08-17T02:09:39.102Z,20.80
2018-08-17T02:12:07.822Z,20.70
2018-08-17T02:14:36.187Z,20.80
2018-08-17T02:17:04.486Z,20.70
2018-08-17T02:19:32.843Z,20.60
2018-08-17T02:22:01.149Z,20.60
2018-08-17T02:24:29.523Z,20.70
2018-08-17T02:26:57.822Z,20.70
2018-08-17T02:29:26.148Z,20.70
2018-08-17T02:31:54.505Z,20.70
2018-08-17T02:34:22.826Z,20.60
2018-08-17T02:36:51.165Z,20.60
2018-08-17T02:39:19.505Z,20.50
2018-08-17T02:41:47.938Z,20.50
2018-08-17T02:44:16.313Z,20.50
2018-08-17T02:46:44.682Z,20.40
2018-08-17T02:49:12.974Z,20.50
2018-08-17T02:51:41.420Z,20.50
2018-08-17T02:54:09.898Z,20.50
2018-08-17T02:56:38.241Z,20.40
2018-08-17T02:59:06.552Z,20.40
2018-08-17T03:01:34.861Z,20.30
2018-08-17T03:04:03.251Z,20.30
2018-08-17T03:06:31.526Z,20.20
2018-08-17T03:08:59.945Z,20.20
2018-08-17T03:11:28.276Z,20.10
2018-08-17T03:13:56.618Z,20.20
2018-08-17T03:16:24.965Z,20.20
2018-08-17T03:18:53.321Z,20.20
2018-08-17T03:21:21.697Z,20.30
2018-08-17T03:23:50.049Z,20.20
2018-08-17T03:26:18.437Z,20.20
2018-08-17T03:28:46.804Z,20.30
2018-08-17T03:31:15.139Z,20.30
2018-08-17T03:33:43.474Z,20.30
2018-08-17T03:36:11.808Z,20.30
2018-08-17T03:38:40.204Z,20.20
2018-08-17T03:41:08.592Z,20.30
2018-08-17T03:43:36.908Z,20.40
2018-08-17T03:46:05.325Z,20.50
2018-08-17T03:48:33.611Z,20.50
2018-08-17T03:51:02.012Z,20.60
2018-08-17T03:55:57.152Z,20.60
2018-08-17T03:58:25.818Z,20.60
2018-08-17T04:00:54.437Z,20.50
2018-08-17T04:03:22.854Z,20.40
2018-08-17T04:05:51.282Z,20.40
2018-08-17T04:08:19.684Z,20.30
2018-08-17T04:10:48.024Z,20.20
2018-08-17T04:13:16.357Z,20.20
2018-08-17T04:15:44.717Z,20.10
2018-08-17T04:18:14.077Z,20.10
2018-08-17T04:20:42.422Z,20.10
2018-08-17T04:23:10.742Z,20.10
2018-08-17T04:25:39.058Z,20.20
2018-08-17T04:28:07.350Z,20.20
2018-08-17T04:30:35.712Z,20.30
2018-08-17T04:33:04.024Z,20.20
2018-08-17T04:35:32.352Z,20.20
2018-08-17T04:38:00.675Z,20.30
2018-08-17T04:40:28.989Z,20.30
2018-08-17T04:42:57.344Z,20.30
2018-08-17T04:45:25.684Z,20.40
2018-08-17T04:47:54.081Z,20.40
2018-08-17T04:50:22.442Z,20.40
2018-08-17T04:52:50.819Z,20.30
2018-08-17T04:55:19.339Z,20.20
2018-08-17T04:57:47.689Z,20.20
2018-08-17T05:00:16.007Z,20.20
2018-08-17T05:02:44.342Z,20.30
2018-08-17T05:05:12.661Z,20.40
2018-08-17T05:07:41.006Z,20.40
2018-08-17T05:10:09.341Z,20.50
2018-08-17T05:12:44.463Z,20.60
2018-08-17T05:15:12.777Z,20.60
2018-08-17T05:17:41.138Z,20.50
2018-08-17T05:20:09.527Z,20.50
2018-08-17T05:22:37.863Z,20.50
2018-08-17T05:25:06.408Z,20.50
2018-08-17T05:27:34.729Z,20.60
2018-08-17T05:30:03.400Z,20.60
2018-08-17T05:32:31.791Z,20.70
2018-08-17T05:35:00.103Z,20.80
2018-08-17T05:37:28.480Z,20.80
2018-08-17T05:39:56.929Z,21.00
2018-08-17T05:42:25.318Z,21.00
2018-08-17T05:44:53.687Z,20.90
2018-08-17T05:47:21.937Z,20.90
2018-08-17T05:49:50.376Z,21.00
2018-08-17T05:52:18.692Z,21.00
2018-08-17T05:54:47.078Z,21.10
2018-08-17T05:57:15.416Z,21.20
2018-08-17T05:59:43.760Z,21.10
2018-08-17T06:02:12.174Z,21.20
2018-08-17T06:04:40.525Z,21.20
2018-08-17T06:07:08.844Z,21.10
2018-08-17T06:09:37.249Z,21.10
2018-08-17T06:12:05.673Z,21.20
2018-08-17T06:14:33.986Z,21.30
2018-08-17T06:17:02.381Z,21.40
2018-08-17T06:19:30.723Z,21.40
2018-08-17T06:21:59.093Z,21.40
2018-08-17T06:24:27.465Z,21.50
2018-08-17T06:26:55.808Z,21.50
2018-08-17T06:29:24.190Z,21.60
2018-08-17T06:31:52.622Z,21.70
2018-08-17T06:34:20.988Z,21.80
2018-08-17T06:36:49.581Z,21.80
2018-08-17T06:39:17.971Z,21.80
2018-08-17T06:41:46.342Z,21.80
2018-08-17T06:44:14.678Z,21.90
2018-08-17T06:46:43.045Z,22.00
2018-08-17T06:49:11.362Z,22.10
2018-08-17T06:51:39.712Z,22.10
2018-08-17T06:54:08.084Z,22.20
2018-08-17T06:56:36.405Z,22.20
2018-08-17T06:59:05.133Z,22.30
2018-08-17T07:01:33.430Z,22.30
2018-08-17T07:04:01.817Z,22.40
2018-08-17T07:06:30.161Z,22.50
2018-08-17T07:08:58.598Z,22.60
2018-08-17T07:11:26.933Z,22.80
2018-08-17T07:13:55.294Z,22.90
2018-08-17T07:16:23.625Z,23.10
2018-08-17T07:18:52.022Z,23.30
2018-08-17T07:21:20.312Z,23.30
2018-08-17T07:23:48.631Z,23.30
2018-08-17T07:26:17.270Z,23.40
2018-08-17T07:28:45.605Z,23.50
2018-08-17T07:31:14.086Z,23.50
2018-08-17T07:33:42.511Z,23.60
2018-08-17T07:36:10.962Z,23.70
2018-08-17T07:38:39.368Z,23.80
2018-08-17T07:41:07.743Z,23.90
2018-08-17T07:43:36.128Z,24.00
2018-08-17T07:46:04.493Z,24.00
2018-08-17T07:48:32.839Z,24.00
2018-08-17T07:51:01.246Z,24.00
2018-08-17T07:53:29.525Z,24.00
2018-08-17T07:55:57.875Z,24.20
2018-08-17T07:58:26.166Z,24.20
2018-08-17T08:00:54.573Z,24.30
2018-08-17T08:03:22.976Z,24.40
2018-08-17T08:05:51.404Z,24.50
2018-08-17T08:08:19.767Z,24.50
2018-08-17T08:10:48.106Z,24.40
2018-08-17T08:13:16.474Z,24.50
2018-08-17T08:15:44.886Z,24.60
2018-08-17T08:18:13.408Z,24.70
2018-08-17T08:20:44.234Z,24.80
2018-08-17T08:23:24.224Z,24.90
2018-08-17T08:25:52.981Z,24.90
2018-08-17T08:28:21.733Z,25.00
2018-08-17T08:30:50.268Z,25.10
2018-08-17T08:33:19.117Z,25.20
2018-08-17T08:35:48.080Z,25.20
2018-08-17T08:38:16.842Z,25.30
2018-08-17T08:40:45.848Z,25.40
2018-08-17T08:43:14.486Z,25.50
2018-08-17T08:45:42.836Z,25.60
2018-08-17T08:48:11.655Z,25.70
2018-08-17T08:50:40.077Z,25.70
2018-08-17T08:53:09.014Z,25.80
2018-08-17T08:55:37.529Z,25.90
2018-08-17T08:58:06.011Z,26.00
2018-08-17T09:00:34.551Z,26.00
2018-08-17T09:03:03.495Z,26.20
2018-08-17T09:05:31.833Z,26.30
2018-08-17T09:08:00.371Z,26.30
2018-08-17T09:10:28.710Z,26.30
2018-08-17T09:12:58.090Z,26.40
2018-08-17T09:15:26.490Z,26.40
2018-08-17T09:17:54.891Z,26.40
2018-08-17T09:20:23.276Z,26.50
2018-08-17T09:22:51.664Z,26.60
2018-08-17T09:25:20.026Z,26.70
2018-08-17T09:27:48.425Z,26.70
2018-08-17T09:30:16.933Z,26.90
2018-08-17T09:32:45.237Z,26.90
2018-08-17T09:35:13.824Z,27.00
2018-08-17T09:37:42.552Z,27.00
2018-08-17T09:40:11.522Z,27.00
2018-08-17T09:42:39.905Z,27.20
2018-08-17T09:45:10.874Z,27.20
2018-08-17T09:47:39.199Z,27.40
2018-08-17T09:50:11.606Z,27.50
2018-08-17T09:52:40.292Z,27.60
2018-08-17T09:55:09.378Z,27.70
2018-08-17T09:57:37.810Z,27.80
2018-08-17T10:00:08.097Z,27.80
2018-08-17T10:02:42.191Z,27.80
2018-08-17T10:05:15.863Z,27.80
2018-08-17T10:07:49.904Z,27.70
2018-08-17T10:10:19.683Z,27.60
2018-08-17T10:12:49.278Z,27.80
2018-08-17T10:15:17.820Z,27.80
2018-08-17T10:17:46.684Z,27.70
2018-08-17T10:20:19.885Z,27.80
2018-08-17T10:22:48.237Z,27.90
2018-08-17T10:25:18.084Z,28.10
2018-08-17T10:27:47.994Z,28.20
2018-08-17T10:30:17.706Z,28.10
2018-08-17T10:32:55.184Z,28.30
2018-08-17T10:35:24.718Z,28.30
2018-08-17T10:37:55.217Z,28.30
2018-08-17T10:40:24.348Z,28.30
2018-08-17T10:42:52.715Z,28.20
2018-08-17T10:45:22.614Z,28.10
2018-08-17T10:47:51.962Z,28.00
2018-08-17T10:50:21.865Z,28.00
2018-08-17T10:52:54.504Z,28.10
2018-08-17T10:55:28.836Z,28.10
2018-08-17T10:57:57.233Z,28.30
2018-08-17T11:00:25.599Z,28.30
2018-08-17T11:02:54.268Z,28.40
2018-08-17T11:05:23.148Z,28.50
2018-08-17T11:07:51.625Z,28.70
2018-08-17T11:10:26.750Z,28.90
2018-08-17T11:12:55.074Z,28.90
2018-08-17T11:15:23.575Z,28.90
2018-08-17T11:17:52.023Z,29.10
2018-08-17T11:20:20.781Z,29.10
2018-08-17T11:22:49.149Z,29.00
2018-08-17T11:25:17.486Z,28.90
2018-08-17T11:27:47.203Z,28.70
2018-08-17T11:30:15.588Z,28.60
2018-08-17T11:32:43.928Z,28.50
2018-08-17T11:35:12.302Z,28.60
2018-08-17T11:37:40.679Z,28.60
2018-08-17T11:40:10.445Z,28.50
2018-08-17T11:42:45.023Z,28.50
2018-08-17T11:45:19.789Z,28.60
2018-08-17T11:47:49.045Z,28.60
2018-08-17T11:50:19.363Z,28.50
2018-08-17T11:52:57.546Z,28.30
2018-08-17T11:55:28.225Z,28.20
2018-08-17T11:57:56.652Z,28.20
2018-08-17T12:00:25.274Z,28.10
2018-08-17T12:02:54.240Z,27.90
2018-08-17T12:05:22.775Z,27.80
2018-08-17T12:07:51.195Z,27.90
2018-08-17T12:10:20.055Z,27.80
2018-08-17T12:12:48.002Z,27.90
2018-08-17T12:15:16.469Z,28.00
2018-08-17T12:17:44.840Z,28.00
2018-08-17T12:20:13.343Z,28.20
2018-08-17T12:22:48.483Z,28.30
2018-08-17T12:25:16.871Z,28.40
2018-08-17T12:27:52.685Z,28.40
2018-08-17T12:30:21.612Z,28.40
2018-08-17T12:32:49.978Z,28.40
2018-08-17T12:35:18.301Z,28.50
2018-08-17T12:37:47.191Z,28.40
2018-08-17T12:40:15.689Z,28.50
2018-08-17T12:42:43.909Z,28.50
2018-08-17T12:45:16.415Z,28.40
2018-08-17T12:47:44.901Z,28.50
2018-08-17T12:50:13.290Z,28.50
2018-08-17T12:52:41.678Z,28.50
2018-08-17T12:55:10.037Z,28.50
2018-08-17T12:57:40.339Z,28.60
2018-08-17T13:00:08.827Z,28.60
2018-08-17T13:02:37.220Z,28.60
2018-08-17T13:05:05.666Z,28.60
2018-08-17T13:07:33.996Z,28.60
2018-08-17T13:10:02.425Z,28.70
2018-08-17T13:12:30.856Z,28.80
2018-08-17T13:14:59.262Z,28.80
2018-08-17T13:17:32.945Z,29.00
2018-08-17T13:20:01.378Z,29.10
2018-08-17T13:22:29.762Z,29.20
2018-08-17T13:24:58.145Z,29.30
2018-08-17T13:27:26.497Z,29.30
2018-08-17T13:29:55.114Z,29.30
2018-08-17T13:32:23.519Z,29.30
2018-08-17T13:34:51.906Z,29.30
2018-08-17T13:37:20.325Z,29.30
2018-08-17T13:39:48.703Z,29.40
2018-08-17T13:42:17.196Z,29.40
2018-08-17T13:44:45.583Z,29.50
2018-08-17T13:47:14.009Z,29.50
2018-08-17T13:49:42.357Z,29.40
2018-08-17T13:52:10.737Z,29.30
2018-08-17T13:54:39.100Z,29.30
2018-08-17T13:57:08.399Z,29.30
2018-08-17T13:59:36.749Z,29.20
2018-08-17T14:02:05.130Z,29.10
2018-08-17T14:04:33.510Z,29.10
2018-08-17T14:07:01.882Z,29.00
2018-08-17T14:09:30.255Z,29.00
2018-08-17T14:11:58.650Z,29.10
2018-08-17T14:14:27.085Z,29.10
2018-08-17T14:16:55.766Z,29.10
2018-08-17T14:19:24.351Z,29.20
2018-08-17T14:21:52.724Z,29.10
2018-08-17T14:24:21.078Z,29.00
2018-08-17T14:26:49.607Z,29.10
2018-08-17T14:29:18.057Z,29.00
2018-08-17T14:31:46.394Z,29.00
2018-08-17T14:34:14.834Z,29.00
2018-08-17T14:36:43.176Z,29.00
2018-08-17T14:39:11.709Z,29.00
2018-08-17T14:41:53.970Z,29.00
2018-08-17T14:44:22.339Z,29.00
2018-08-17T14:46:50.783Z,29.00
2018-08-17T14:49:19.112Z,29.00
2018-08-17T14:51:49.663Z,28.90
2018-08-17T14:54:18.099Z,28.70
2018-08-17T14:56:46.947Z,28.70
2018-08-17T14:59:15.888Z,28.70
2018-08-17T15:01:44.300Z,28.60
2018-08-17T15:04:12.733Z,28.60
2018-08-17T15:06:41.127Z,28.40
2018-08-17T15:09:11.909Z,28.30
2018-08-17T15:11:41.027Z,28.20
2018-08-17T15:14:10.886Z,28.10
2018-08-17T15:16:39.273Z,27.90
2018-08-17T15:19:07.696Z,27.90
2018-08-17T15:21:36.084Z,27.80
2018-08-17T15:24:06.369Z,27.70
2018-08-17T15:26:34.778Z,27.70
2018-08-17T15:29:03.157Z,27.70
2018-08-17T15:31:31.666Z,27.70
2018-08-17T15:34:00.054Z,27.60
2018-08-17T15:36:28.446Z,27.60
2018-08-17T15:38:56.869Z,27.40
2018-08-17T15:41:25.268Z,27.40
2018-08-17T15:43:53.696Z,27.40
2018-08-17T15:46:24.881Z,27.40
2018-08-17T15:48:54.322Z,27.50
2018-08-17T15:51:22.714Z,27.50
2018-08-17T15:53:51.258Z,27.50
2018-08-17T15:56:19.672Z,27.50
2018-08-17T15:58:48.170Z,27.50
2018-08-17T16:01:16.521Z,27.60
2018-08-17T16:03:44.885Z,27.60
2018-08-17T16:06:13.300Z,27.70
2018-08-17T16:08:41.710Z,27.60
2018-08-17T16:11:10.172Z,27.60
2018-08-17T16:13:38.564Z,27.60
2018-08-17T16:16:08.035Z,27.70
2018-08-17T16:18:36.512Z,27.60
2018-08-17T16:21:04.968Z,27.60
2018-08-17T16:23:33.926Z,27.60
2018-08-17T16:26:02.230Z,27.50
2018-08-17T16:28:30.722Z,27.50
2018-08-17T16:30:59.218Z,27.40
2018-08-17T16:33:27.655Z,27.50
2018-08-17T16:35:56.043Z,27.40
2018-08-17T16:38:24.522Z,27.40
2018-08-17T16:40:53.177Z,27.40
2018-08-17T16:43:29.564Z,27.30
2018-08-17T16:45:57.986Z,27.20
2018-08-17T16:48:26.374Z,27.20
2018-08-17T16:50:54.762Z,27.20
2018-08-17T16:53:23.296Z,27.20
2018-08-17T16:55:52.517Z,27.10
2018-08-17T16:58:21.686Z,27.10
2018-08-17T17:00:50.123Z,27.10
2018-08-17T17:03:18.601Z,27.00
2018-08-17T17:05:47.781Z,27.00
2018-08-17T17:08:16.107Z,26.80
2018-08-17T17:10:44.642Z,26.80
2018-08-17T17:13:13.133Z,26.80
2018-08-17T17:15:41.526Z,26.80
2018-08-17T17:18:09.986Z,26.80
2018-08-17T17:20:38.996Z,26.80
2018-08-17T17:23:08.897Z,26.80
2018-08-17T17:25:37.336Z,26.80
2018-08-17T17:28:06.111Z,26.80
2018-08-17T17:30:42.737Z,26.80
2018-08-17T17:33:11.593Z,26.80
2018-08-17T17:35:41.206Z,26.90
2018-08-17T17:38:10.092Z,26.80
2018-08-17T17:40:38.987Z,26.80
2018-08-17T17:43:07.553Z,26.80
2018-08-17T17:45:36.609Z,26.80
2018-08-17T17:48:05.149Z,26.70
2018-08-17T17:50:33.610Z,26.70
2018-08-17T17:53:02.916Z,26.70
2018-08-17T17:55:49.184Z,26.70
2018-08-17T17:58:18.413Z,26.70
2018-08-17T18:00:58.918Z,26.60
2018-08-17T18:03:29.382Z,26.60
2018-08-17T18:06:02.786Z,26.70
2018-08-17T18:08:31.274Z,26.60
2018-08-17T18:10:59.926Z,26.50
2018-08-17T18:13:28.607Z,26.50
2018-08-17T18:15:56.999Z,26.50
2018-08-17T18:18:25.515Z,26.50
2018-08-17T18:20:53.950Z,26.50
2018-08-17T18:23:22.377Z,26.50
2018-08-17T18:25:50.917Z,26.50
2018-08-17T18:28:19.378Z,26.40
2018-08-17T18:30:47.841Z,26.40
2018-08-17T18:33:16.176Z,26.40
2018-08-17T18:35:45.112Z,26.30
2018-08-17T18:38:13.477Z,26.30
2018-08-17T18:40:42.016Z,26.20
2018-08-17T18:43:10.509Z,26.20
2018-08-17T18:45:39.041Z,26.10
2018-08-17T18:48:07.528Z,26.10
2018-08-17T18:50:36.416Z,26.00
2018-08-17T18:53:04.851Z,26.00
2018-08-17T18:55:33.313Z,25.80
2018-08-17T18:58:01.722Z,25.60
2018-08-17T19:00:30.205Z,25.50
2018-08-17T19:02:58.637Z,25.50
2018-08-17T19:05:27.140Z,25.40
2018-08-17T19:07:55.732Z,25.50
2018-08-17T19:10:24.184Z,25.30
2018-08-17T19:12:52.549Z,25.20
2018-08-17T19:15:20.925Z,25.10
2018-08-17T19:17:49.344Z,25.10
2018-08-17T19:20:17.727Z,25.00
2018-08-17T19:22:46.333Z,24.90
2018-08-17T19:25:15.987Z,24.90
2018-08-17T19:27:44.515Z,24.80
2018-08-17T19:30:25.054Z,24.70
2018-08-17T19:32:55.065Z,24.70
2018-08-17T19:35:23.509Z,24.70
2018-08-17T19:37:52.492Z,24.70
2018-08-17T19:40:21.969Z,24.60
2018-08-17T19:42:50.547Z,24.50
2018-08-17T19:45:19.753Z,24.40
2018-08-17T19:47:49.175Z,24.50
2018-08-17T19:50:17.615Z,24.30
2018-08-17T19:52:45.995Z,24.30
2018-08-17T19:55:14.493Z,24.30
2018-08-17T19:57:42.914Z,24.20
2018-08-17T20:00:12.298Z,24.10
2018-08-17T20:02:41.450Z,24.10
2018-08-17T20:05:10.329Z,24.10
2018-08-17T20:07:39.115Z,24.00
2018-08-17T20:10:10.084Z,23.90
2018-08-17T20:12:38.634Z,23.90
2018-08-17T20:15:07.795Z,23.80
2018-08-17T20:17:36.755Z,23.80
2018-08-17T20:20:10.004Z,23.80
2018-08-17T20:22:38.526Z,23.70
2018-08-17T20:25:13.227Z,23.70
2018-08-17T20:27:42.425Z,23.80
2018-08-17T20:30:16.440Z,23.70
2018-08-17T20:32:45.553Z,23.60
2018-08-17T20:35:14.622Z,23.60
2018-08-17T20:37:46.274Z,23.60
2018-08-17T20:40:15.479Z,23.50
2018-08-17T20:42:44.275Z,23.50
2018-08-17T20:45:12.789Z,23.50
2018-08-17T20:47:41.858Z,23.60
2018-08-17T20:50:14.060Z,23.50
2018-08-17T20:52:50.471Z,23.50
2018-08-17T20:55:19.662Z,23.60
2018-08-17T20:57:52.430Z,23.50
2018-08-17T21:00:22.268Z,23.50
2018-08-17T21:02:50.793Z,23.50
2018-08-17T21:05:19.367Z,23.40
2018-08-17T21:07:48.357Z,23.50
2018-08-17T21:10:16.959Z,23.50
2018-08-17T21:12:46.380Z,23.60
2018-08-17T21:15:15.018Z,23.60
2018-08-17T21:17:43.441Z,23.60
2018-08-17T21:20:12.100Z,23.50
2018-08-17T21:22:40.681Z,23.50
2018-08-17T21:25:09.230Z,23.40
2018-08-17T21:27:37.746Z,23.30
2018-08-17T21:30:06.907Z,23.30
2018-08-17T21:32:35.401Z,23.30
2018-08-17T21:35:04.202Z,23.10
2018-08-17T21:37:32.651Z,23.20
2018-08-17T21:40:01.053Z,23.20
2018-08-17T21:42:29.454Z,23.30
2018-08-17T21:44:57.852Z,23.40
2018-08-17T21:47:26.284Z,23.30
2018-08-17T21:49:59.870Z,23.40
2018-08-17T21:52:28.602Z,23.10
2018-08-17T21:54:56.981Z,22.80
2018-08-17T21:57:25.546Z,22.90
2018-08-17T21:59:54.195Z,22.80
2018-08-17T22:02:23.096Z,22.90
2018-08-17T22:04:54.453Z,23.00
2018-08-17T22:07:24.576Z,23.10
2018-08-17T22:09:54.026Z,23.20
2018-08-17T22:12:22.633Z,23.30
2018-08-17T22:14:51.037Z,23.30
2018-08-17T22:17:40.720Z,23.10
2018-08-17T22:20:12.864Z,22.80
2018-08-17T22:22:42.126Z,22.70
2018-08-17T22:25:13.866Z,22.90
2018-08-17T22:27:42.340Z,22.90
2018-08-17T22:30:17.300Z,22.90
2018-08-17T22:32:45.551Z,22.80
2018-08-17T22:35:15.670Z,22.70
2018-08-17T22:37:44.804Z,22.70
2018-08-17T22:40:13.432Z,22.60
2018-08-17T22:42:42.215Z,22.20
2018-08-17T22:45:10.638Z,22.10
2018-08-17T22:47:39.658Z,21.90
2018-08-17T22:50:08.414Z,21.90
2018-08-17T22:52:36.991Z,21.60
2018-08-17T22:55:08.815Z,21.60
2018-08-17T22:57:37.475Z,21.70
2018-08-17T23:00:18.552Z,21.70
2018-08-17T23:02:48.264Z,21.40
2018-08-17T23:05:19.581Z,20.90
2018-08-17T23:07:48.594Z,20.90
2018-08-17T23:10:18.330Z,20.90
2018-08-17T23:12:47.845Z,21.00
2018-08-17T23:15:16.309Z,21.00
2018-08-17T23:17:47.381Z,20.80
2018-08-17T23:20:20.284Z,20.80
2018-08-17T23:22:50.162Z,20.90
2018-08-17T23:25:18.758Z,20.80
2018-08-17T23:27:47.957Z,20.80
2018-08-17T23:30:16.421Z,20.60
2018-08-17T23:32:45.115Z,20.50
2018-08-17T23:35:13.502Z,20.50
2018-08-17T23:37:42.057Z,20.50
2018-08-17T23:40:10.506Z,20.40
2018-08-17T23:42:39.079Z,20.30
2018-08-17T23:45:12.705Z,20.20
2018-08-17T23:47:41.113Z,20.00
2018-08-17T23:50:11.301Z,20.10
2018-08-17T23:52:39.768Z,20.10
2018-08-17T23:55:11.150Z,20.20
2018-08-17T23:57:39.475Z,20.30
